sensor_id;sensor_type;location;lat;lon;timestamp;P1;durP1;ratioP1;P2;durP2;ratioP2
5147;SDS011;2592;48.140;7.614;2022-09-30T00:01:47;12.07;;;4.23;;
5147;SDS011;2592;48.140;7.614;2022-09-30T00:04:15;4.20;;;3.50;;
5147;SDS011;2592;48.140;7.614;2022-09-30T00:06:42;10.10;;;3.73;;
5147;SDS011;2592;48.140;7.614;2022-09-30T00:09:08;5.80;;;3.83;;
5147;SDS011;2592;48.140;7.614;2022-09-30T00:11:35;6.37;;;4.40;;
5147;SDS011;2592;48.140;7.614;2022-09-30T00:14:02;13.73;;;4.53;;
5147;SDS011;2592;48.140;7.614;2022-09-30T00:16:30;9.07;;;5.20;;
5147;SDS011;2592;48.140;7.614;2022-09-30T00:18:58;6.40;;;3.53;;
5147;SDS011;2592;48.140;7.614;2022-09-30T00:21:24;4.97;;;3.53;;
5147;SDS011;2592;48.140;7.614;2022-09-30T00:23:52;5.33;;;3.40;;
5147;SDS011;2592;48.140;7.614;2022-09-30T00:26:20;4.47;;;3.43;;
5147;SDS011;2592;48.140;7.614;2022-09-30T00:28:50;10.37;;;3.20;;
5147;SDS011;2592;48.140;7.614;2022-09-30T00:31:22;5.67;;;3.60;;
5147;SDS011;2592;48.140;7.614;2022-09-30T00:33:49;5.03;;;3.60;;
5147;SDS011;2592;48.140;7.614;2022-09-30T00:36:31;6.00;;;3.20;;
5147;SDS011;2592;48.140;7.614;2022-09-30T00:38:58;4.33;;;3.83;;
5147;SDS011;2592;48.140;7.614;2022-09-30T00:41:24;6.43;;;3.00;;
5147;SDS011;2592;48.140;7.614;2022-09-30T00:43:51;4.67;;;3.53;;
5147;SDS011;2592;48.140;7.614;2022-09-30T00:46:19;6.33;;;3.93;;
5147;SDS011;2592;48.140;7.614;2022-09-30T00:48:46;7.63;;;3.57;;
5147;SDS011;2592;48.140;7.614;2022-09-30T00:51:17;3.47;;;3.13;;
5147;SDS011;2592;48.140;7.614;2022-09-30T00:53:48;4.20;;;3.27;;
5147;SDS011;2592;48.140;7.614;2022-09-30T00:56:16;4.57;;;3.30;;
5147;SDS011;2592;48.140;7.614;2022-09-30T00:58:44;3.77;;;3.17;;
5147;SDS011;2592;48.140;7.614;2022-09-30T01:01:13;5.20;;;3.63;;
5147;SDS011;2592;48.140;7.614;2022-09-30T01:03:40;5.67;;;4.30;;
5147;SDS011;2592;48.140;7.614;2022-09-30T01:06:07;5.63;;;4.43;;
5147;SDS011;2592;48.140;7.614;2022-09-30T01:08:36;6.57;;;4.23;;
5147;SDS011;2592;48.140;7.614;2022-09-30T01:11:04;3.97;;;3.67;;
5147;SDS011;2592;48.140;7.614;2022-09-30T01:13:31;4.97;;;3.60;;
5147;SDS011;2592;48.140;7.614;2022-09-30T01:16:04;4.27;;;3.70;;
5147;SDS011;2592;48.140;7.614;2022-09-30T01:18:35;8.30;;;4.27;;
5147;SDS011;2592;48.140;7.614;2022-09-30T01:21:15;4.27;;;3.60;;
5147;SDS011;2592;48.140;7.614;2022-09-30T01:24:00;7.47;;;4.30;;
5147;SDS011;2592;48.140;7.614;2022-09-30T01:26:44;5.73;;;4.33;;
5147;SDS011;2592;48.140;7.614;2022-09-30T01:29:19;5.83;;;4.50;;
5147;SDS011;2592;48.140;7.614;2022-09-30T01:31:52;5.40;;;3.63;;
5147;SDS011;2592;48.140;7.614;2022-09-30T01:34:23;5.17;;;3.90;;
5147;SDS011;2592;48.140;7.614;2022-09-30T01:36:56;4.93;;;3.70;;
5147;SDS011;2592;48.140;7.614;2022-09-30T01:39:26;5.40;;;3.90;;
5147;SDS011;2592;48.140;7.614;2022-09-30T01:41:54;5.20;;;4.20;;
5147;SDS011;2592;48.140;7.614;2022-09-30T01:44:28;4.10;;;3.80;;
5147;SDS011;2592;48.140;7.614;2022-09-30T01:46:58;7.20;;;4.17;;
5147;SDS011;2592;48.140;7.614;2022-09-30T01:49:29;4.33;;;3.67;;
5147;SDS011;2592;48.140;7.614;2022-09-30T01:51:58;4.83;;;3.73;;
5147;SDS011;2592;48.140;7.614;2022-09-30T01:54:29;7.43;;;3.83;;
5147;SDS011;2592;48.140;7.614;2022-09-30T01:56:59;7.17;;;4.20;;
5147;SDS011;2592;48.140;7.614;2022-09-30T01:59:29;4.27;;;3.60;;
5147;SDS011;2592;48.140;7.614;2022-09-30T02:02:00;5.03;;;3.90;;
5147;SDS011;2592;48.140;7.614;2022-09-30T02:04:28;4.43;;;3.97;;
5147;SDS011;2592;48.140;7.614;2022-09-30T02:06:58;6.73;;;4.40;;
5147;SDS011;2592;48.140;7.614;2022-09-30T02:09:26;7.13;;;4.70;;
5147;SDS011;2592;48.140;7.614;2022-09-30T02:11:54;6.20;;;4.13;;
5147;SDS011;2592;48.140;7.614;2022-09-30T02:14:22;5.40;;;4.70;;
5147;SDS011;2592;48.140;7.614;2022-09-30T02:16:52;5.10;;;4.43;;
5147;SDS011;2592;48.140;7.614;2022-09-30T02:19:21;4.97;;;4.50;;
5147;SDS011;2592;48.140;7.614;2022-09-30T02:21:52;7.33;;;5.00;;
5147;SDS011;2592;48.140;7.614;2022-09-30T02:24:21;5.60;;;5.10;;
5147;SDS011;2592;48.140;7.614;2022-09-30T02:26:49;5.87;;;4.50;;
5147;SDS011;2592;48.140;7.614;2022-09-30T02:29:20;5.70;;;5.20;;
5147;SDS011;2592;48.140;7.614;2022-09-30T02:31:48;10.93;;;4.33;;
5147;SDS011;2592;48.140;7.614;2022-09-30T02:34:17;9.60;;;5.40;;
5147;SDS011;2592;48.140;7.614;2022-09-30T02:36:48;5.93;;;5.33;;
5147;SDS011;2592;48.140;7.614;2022-09-30T02:39:19;7.20;;;4.43;;
5147;SDS011;2592;48.140;7.614;2022-09-30T02:41:47;6.70;;;5.87;;
5147;SDS011;2592;48.140;7.614;2022-09-30T02:44:16;7.03;;;5.30;;
5147;SDS011;2592;48.140;7.614;2022-09-30T02:46:45;6.00;;;5.40;;
5147;SDS011;2592;48.140;7.614;2022-09-30T02:49:16;6.80;;;5.63;;
5147;SDS011;2592;48.140;7.614;2022-09-30T02:51:48;6.80;;;5.20;;
5147;SDS011;2592;48.140;7.614;2022-09-30T02:54:21;7.07;;;6.37;;
5147;SDS011;2592;48.140;7.614;2022-09-30T02:56:52;6.03;;;5.43;;
5147;SDS011;2592;48.140;7.614;2022-09-30T02:59:19;5.43;;;4.93;;
5147;SDS011;2592;48.140;7.614;2022-09-30T03:01:46;7.23;;;5.90;;
5147;SDS011;2592;48.140;7.614;2022-09-30T03:04:14;8.37;;;6.50;;
5147;SDS011;2592;48.140;7.614;2022-09-30T03:06:41;6.20;;;5.60;;
5147;SDS011;2592;48.140;7.614;2022-09-30T03:09:09;7.60;;;6.07;;
5147;SDS011;2592;48.140;7.614;2022-09-30T03:11:35;6.80;;;6.07;;
5147;SDS011;2592;48.140;7.614;2022-09-30T03:14:13;6.77;;;6.10;;
5147;SDS011;2592;48.140;7.614;2022-09-30T03:16:50;8.63;;;6.13;;
5147;SDS011;2592;48.140;7.614;2022-09-30T03:19:31;8.33;;;7.37;;
5147;SDS011;2592;48.140;7.614;2022-09-30T03:27:26;7.70;;;6.70;;
5147;SDS011;2592;48.140;7.614;2022-09-30T03:29:56;7.10;;;6.40;;
5147;SDS011;2592;48.140;7.614;2022-09-30T03:32:30;6.93;;;6.23;;
5147;SDS011;2592;48.140;7.614;2022-09-30T03:35:01;7.10;;;5.93;;
5147;SDS011;2592;48.140;7.614;2022-09-30T03:37:30;8.20;;;5.93;;
5147;SDS011;2592;48.140;7.614;2022-09-30T03:39:59;7.60;;;6.80;;
5147;SDS011;2592;48.140;7.614;2022-09-30T03:42:29;8.50;;;7.03;;
5147;SDS011;2592;48.140;7.614;2022-09-30T03:45:01;12.63;;;9.43;;
5147;SDS011;2592;48.140;7.614;2022-09-30T03:47:30;12.67;;;10.20;;
5147;SDS011;2592;48.140;7.614;2022-09-30T03:49:59;10.90;;;8.83;;
5147;SDS011;2592;48.140;7.614;2022-09-30T03:52:26;12.07;;;9.00;;
5147;SDS011;2592;48.140;7.614;2022-09-30T03:54:56;8.90;;;7.30;;
5147;SDS011;2592;48.140;7.614;2022-09-30T03:57:24;9.10;;;7.10;;
5147;SDS011;2592;48.140;7.614;2022-09-30T03:59:54;9.23;;;6.87;;
5147;SDS011;2592;48.140;7.614;2022-09-30T04:02:21;8.10;;;7.40;;
5147;SDS011;2592;48.140;7.614;2022-09-30T04:04:48;9.90;;;7.20;;
5147;SDS011;2592;48.140;7.614;2022-09-30T04:07:14;19.43;;;6.63;;
5147;SDS011;2592;48.140;7.614;2022-09-30T04:09:41;8.20;;;6.57;;
5147;SDS011;2592;48.140;7.614;2022-09-30T04:12:07;9.80;;;6.90;;
5147;SDS011;2592;48.140;7.614;2022-09-30T04:14:34;8.27;;;6.63;;
5147;SDS011;2592;48.140;7.614;2022-09-30T04:17:02;8.60;;;6.50;;
5147;SDS011;2592;48.140;7.614;2022-09-30T04:19:28;8.47;;;6.60;;
5147;SDS011;2592;48.140;7.614;2022-09-30T04:21:55;8.20;;;7.10;;
5147;SDS011;2592;48.140;7.614;2022-09-30T04:24:22;9.00;;;7.20;;
5147;SDS011;2592;48.140;7.614;2022-09-30T04:26:49;7.20;;;6.50;;
5147;SDS011;2592;48.140;7.614;2022-09-30T04:29:15;8.50;;;6.70;;
5147;SDS011;2592;48.140;7.614;2022-09-30T04:31:42;8.30;;;6.03;;
5147;SDS011;2592;48.140;7.614;2022-09-30T04:34:10;7.60;;;5.47;;
5147;SDS011;2592;48.140;7.614;2022-09-30T04:36:36;13.20;;;6.03;;
5147;SDS011;2592;48.140;7.614;2022-09-30T04:39:03;9.40;;;6.00;;
5147;SDS011;2592;48.140;7.614;2022-09-30T04:41:29;10.23;;;6.60;;
5147;SDS011;2592;48.140;7.614;2022-09-30T04:43:56;7.83;;;5.67;;
5147;SDS011;2592;48.140;7.614;2022-09-30T04:46:22;6.47;;;5.70;;
5147;SDS011;2592;48.140;7.614;2022-09-30T04:48:49;6.53;;;5.77;;
5147;SDS011;2592;48.140;7.614;2022-09-30T04:51:17;6.63;;;5.20;;
5147;SDS011;2592;48.140;7.614;2022-09-30T04:53:44;6.33;;;5.63;;
5147;SDS011;2592;48.140;7.614;2022-09-30T04:56:10;7.80;;;5.10;;
5147;SDS011;2592;48.140;7.614;2022-09-30T04:58:37;5.97;;;5.37;;
5147;SDS011;2592;48.140;7.614;2022-09-30T05:01:04;5.93;;;5.27;;
5147;SDS011;2592;48.140;7.614;2022-09-30T05:03:31;10.80;;;5.27;;
5147;SDS011;2592;48.140;7.614;2022-09-30T05:05:57;7.43;;;5.20;;
5147;SDS011;2592;48.140;7.614;2022-09-30T05:08:25;6.27;;;5.73;;
5147;SDS011;2592;48.140;7.614;2022-09-30T05:10:52;15.93;;;10.33;;
5147;SDS011;2592;48.140;7.614;2022-09-30T05:13:19;15.97;;;10.17;;
5147;SDS011;2592;48.140;7.614;2022-09-30T05:15:46;16.80;;;11.10;;
5147;SDS011;2592;48.140;7.614;2022-09-30T05:18:13;12.50;;;8.07;;
5147;SDS011;2592;48.140;7.614;2022-09-30T05:20:39;9.10;;;6.03;;
5147;SDS011;2592;48.140;7.614;2022-09-30T05:23:06;11.37;;;6.43;;
5147;SDS011;2592;48.140;7.614;2022-09-30T05:25:34;6.17;;;5.53;;
5147;SDS011;2592;48.140;7.614;2022-09-30T05:28:01;10.10;;;5.80;;
5147;SDS011;2592;48.140;7.614;2022-09-30T05:30:27;5.27;;;4.77;;
5147;SDS011;2592;48.140;7.614;2022-09-30T05:32:54;8.90;;;6.03;;
5147;SDS011;2592;48.140;7.614;2022-09-30T05:35:23;6.63;;;5.63;;
5147;SDS011;2592;48.140;7.614;2022-09-30T05:37:49;8.33;;;6.10;;
5147;SDS011;2592;48.140;7.614;2022-09-30T05:40:16;7.20;;;5.40;;
5147;SDS011;2592;48.140;7.614;2022-09-30T05:42:43;9.30;;;5.00;;
5147;SDS011;2592;48.140;7.614;2022-09-30T05:45:11;6.40;;;5.50;;
5147;SDS011;2592;48.140;7.614;2022-09-30T05:47:37;10.23;;;6.77;;
5147;SDS011;2592;48.140;7.614;2022-09-30T05:50:04;7.67;;;6.37;;
5147;SDS011;2592;48.140;7.614;2022-09-30T05:52:30;8.37;;;6.87;;
5147;SDS011;2592;48.140;7.614;2022-09-30T05:54:57;16.33;;;7.97;;
5147;SDS011;2592;48.140;7.614;2022-09-30T05:57:25;8.13;;;7.33;;
5147;SDS011;2592;48.140;7.614;2022-09-30T05:59:53;8.40;;;7.10;;
5147;SDS011;2592;48.140;7.614;2022-09-30T06:02:22;7.80;;;7.00;;
5147;SDS011;2592;48.140;7.614;2022-09-30T06:04:48;8.80;;;7.93;;
5147;SDS011;2592;48.140;7.614;2022-09-30T06:07:15;9.33;;;7.17;;
5147;SDS011;2592;48.140;7.614;2022-09-30T06:09:42;8.67;;;7.77;;
5147;SDS011;2592;48.140;7.614;2022-09-30T06:12:09;36.00;;;27.07;;
5147;SDS011;2592;48.140;7.614;2022-09-30T06:14:36;13.00;;;11.20;;
5147;SDS011;2592;48.140;7.614;2022-09-30T06:17:04;14.53;;;10.50;;
5147;SDS011;2592;48.140;7.614;2022-09-30T06:19:30;12.23;;;9.80;;
5147;SDS011;2592;48.140;7.614;2022-09-30T06:21:57;15.17;;;10.67;;
5147;SDS011;2592;48.140;7.614;2022-09-30T06:24:23;11.87;;;10.40;;
5147;SDS011;2592;48.140;7.614;2022-09-30T06:26:50;16.50;;;11.50;;
5147;SDS011;2592;48.140;7.614;2022-09-30T06:29:16;18.90;;;17.00;;
5147;SDS011;2592;48.140;7.614;2022-09-30T06:31:43;26.17;;;22.10;;
5147;SDS011;2592;48.140;7.614;2022-09-30T06:34:11;19.40;;;17.40;;
5147;SDS011;2592;48.140;7.614;2022-09-30T06:36:37;23.33;;;20.80;;
5147;SDS011;2592;48.140;7.614;2022-09-30T06:39:04;22.10;;;19.80;;
5147;SDS011;2592;48.140;7.614;2022-09-30T06:41:30;19.23;;;17.13;;
5147;SDS011;2592;48.140;7.614;2022-09-30T06:43:56;47.63;;;31.23;;
5147;SDS011;2592;48.140;7.614;2022-09-30T06:46:23;33.93;;;26.50;;
5147;SDS011;2592;48.140;7.614;2022-09-30T06:48:52;39.53;;;32.50;;
5147;SDS011;2592;48.140;7.614;2022-09-30T06:51:20;27.40;;;22.07;;
5147;SDS011;2592;48.140;7.614;2022-09-30T06:53:49;19.27;;;13.33;;
5147;SDS011;2592;48.140;7.614;2022-09-30T06:56:15;13.00;;;10.90;;
5147;SDS011;2592;48.140;7.614;2022-09-30T06:58:42;13.37;;;10.33;;
5147;SDS011;2592;48.140;7.614;2022-09-30T07:01:09;9.30;;;8.37;;
5147;SDS011;2592;48.140;7.614;2022-09-30T07:03:37;12.67;;;11.13;;
5147;SDS011;2592;48.140;7.614;2022-09-30T07:06:04;13.50;;;12.10;;
5147;SDS011;2592;48.140;7.614;2022-09-30T07:08:32;12.00;;;10.87;;
5147;SDS011;2592;48.140;7.614;2022-09-30T07:10:59;13.03;;;10.43;;
5147;SDS011;2592;48.140;7.614;2022-09-30T07:13:27;9.47;;;8.57;;
5147;SDS011;2592;48.140;7.614;2022-09-30T07:15:53;11.70;;;8.30;;
5147;SDS011;2592;48.140;7.614;2022-09-30T07:18:21;13.67;;;10.03;;
5147;SDS011;2592;48.140;7.614;2022-09-30T07:20:48;11.97;;;10.87;;
5147;SDS011;2592;48.140;7.614;2022-09-30T07:23:14;14.53;;;11.40;;
5147;SDS011;2592;48.140;7.614;2022-09-30T07:25:49;15.43;;;10.40;;
5147;SDS011;2592;48.140;7.614;2022-09-30T07:28:16;14.17;;;11.97;;
5147;SDS011;2592;48.140;7.614;2022-09-30T07:30:42;14.00;;;12.50;;
5147;SDS011;2592;48.140;7.614;2022-09-30T07:33:09;14.83;;;12.90;;
5147;SDS011;2592;48.140;7.614;2022-09-30T07:35:40;16.07;;;14.47;;
5147;SDS011;2592;48.140;7.614;2022-09-30T07:38:08;18.00;;;14.07;;
5147;SDS011;2592;48.140;7.614;2022-09-30T07:40:34;19.47;;;15.53;;
5147;SDS011;2592;48.140;7.614;2022-09-30T07:43:02;17.17;;;15.30;;
5147;SDS011;2592;48.140;7.614;2022-09-30T07:45:29;18.40;;;15.80;;
5147;SDS011;2592;48.140;7.614;2022-09-30T07:47:56;16.33;;;14.73;;
5147;SDS011;2592;48.140;7.614;2022-09-30T07:50:23;18.10;;;15.27;;
5147;SDS011;2592;48.140;7.614;2022-09-30T07:52:51;23.10;;;16.60;;
5147;SDS011;2592;48.140;7.614;2022-09-30T07:55:18;20.37;;;16.37;;
5147;SDS011;2592;48.140;7.614;2022-09-30T07:57:44;18.37;;;15.17;;
5147;SDS011;2592;48.140;7.614;2022-09-30T08:00:12;17.73;;;15.80;;
5147;SDS011;2592;48.140;7.614;2022-09-30T08:02:38;19.87;;;14.90;;
5147;SDS011;2592;48.140;7.614;2022-09-30T08:05:05;18.63;;;15.57;;
5147;SDS011;2592;48.140;7.614;2022-09-30T08:07:32;17.70;;;15.27;;
5147;SDS011;2592;48.140;7.614;2022-09-30T08:09:58;18.03;;;15.90;;
5147;SDS011;2592;48.140;7.614;2022-09-30T08:12:24;17.73;;;14.97;;
5147;SDS011;2592;48.140;7.614;2022-09-30T08:14:51;18.70;;;16.07;;
5147;SDS011;2592;48.140;7.614;2022-09-30T08:17:18;19.40;;;15.63;;
5147;SDS011;2592;48.140;7.614;2022-09-30T08:19:45;19.57;;;16.80;;
5147;SDS011;2592;48.140;7.614;2022-09-30T08:22:11;19.00;;;14.00;;
5147;SDS011;2592;48.140;7.614;2022-09-30T08:24:39;16.50;;;13.97;;
5147;SDS011;2592;48.140;7.614;2022-09-30T08:27:05;18.23;;;14.73;;
5147;SDS011;2592;48.140;7.614;2022-09-30T08:29:31;17.73;;;15.00;;
5147;SDS011;2592;48.140;7.614;2022-09-30T08:31:58;15.33;;;13.80;;
5147;SDS011;2592;48.140;7.614;2022-09-30T08:34:26;18.93;;;15.30;;
5147;SDS011;2592;48.140;7.614;2022-09-30T08:36:57;15.90;;;14.20;;
5147;SDS011;2592;48.140;7.614;2022-09-30T08:39:25;19.20;;;14.70;;
5147;SDS011;2592;48.140;7.614;2022-09-30T08:41:58;16.47;;;14.10;;
5147;SDS011;2592;48.140;7.614;2022-09-30T08:44:32;17.80;;;13.60;;
5147;SDS011;2592;48.140;7.614;2022-09-30T08:47:04;16.63;;;14.50;;
5147;SDS011;2592;48.140;7.614;2022-09-30T08:49:40;14.37;;;12.83;;
5147;SDS011;2592;48.140;7.614;2022-09-30T08:52:11;16.00;;;14.30;;
5147;SDS011;2592;48.140;7.614;2022-09-30T08:54:39;16.23;;;13.30;;
5147;SDS011;2592;48.140;7.614;2022-09-30T08:57:08;15.00;;;12.63;;
5147;SDS011;2592;48.140;7.614;2022-09-30T08:59:37;15.80;;;13.23;;
5147;SDS011;2592;48.140;7.614;2022-09-30T09:02:09;17.80;;;13.97;;
5147;SDS011;2592;48.140;7.614;2022-09-30T09:04:40;17.63;;;15.17;;
5147;SDS011;2592;48.140;7.614;2022-09-30T09:07:07;32.20;;;22.57;;
5147;SDS011;2592;48.140;7.614;2022-09-30T09:09:42;17.70;;;14.57;;
5147;SDS011;2592;48.140;7.614;2022-09-30T09:12:12;29.50;;;20.10;;
5147;SDS011;2592;48.140;7.614;2022-09-30T09:14:44;24.10;;;17.63;;
5147;SDS011;2592;48.140;7.614;2022-09-30T09:17:19;34.47;;;20.70;;
5147;SDS011;2592;48.140;7.614;2022-09-30T09:19:51;40.40;;;25.00;;
5147;SDS011;2592;48.140;7.614;2022-09-30T09:22:21;15.13;;;11.33;;
5147;SDS011;2592;48.140;7.614;2022-09-30T09:24:49;25.00;;;15.43;;
5147;SDS011;2592;48.140;7.614;2022-09-30T09:27:18;15.40;;;13.80;;
5147;SDS011;2592;48.140;7.614;2022-09-30T09:29:47;15.83;;;10.40;;
5147;SDS011;2592;48.140;7.614;2022-09-30T09:32:15;22.53;;;16.03;;
5147;SDS011;2592;48.140;7.614;2022-09-30T09:34:42;17.70;;;12.10;;
5147;SDS011;2592;48.140;7.614;2022-09-30T09:37:12;17.77;;;11.93;;
5147;SDS011;2592;48.140;7.614;2022-09-30T09:39:47;22.37;;;16.13;;
5147;SDS011;2592;48.140;7.614;2022-09-30T09:42:22;32.53;;;16.50;;
5147;SDS011;2592;48.140;7.614;2022-09-30T09:44:51;18.27;;;11.77;;
5147;SDS011;2592;48.140;7.614;2022-09-30T09:47:20;20.67;;;15.53;;
5147;SDS011;2592;48.140;7.614;2022-09-30T09:49:47;22.60;;;15.23;;
5147;SDS011;2592;48.140;7.614;2022-09-30T09:52:24;29.73;;;19.17;;
5147;SDS011;2592;48.140;7.614;2022-09-30T09:54:52;21.87;;;16.17;;
5147;SDS011;2592;48.140;7.614;2022-09-30T09:57:21;27.27;;;19.30;;
5147;SDS011;2592;48.140;7.614;2022-09-30T09:59:56;17.50;;;13.43;;
5147;SDS011;2592;48.140;7.614;2022-09-30T10:02:23;14.57;;;12.17;;
5147;SDS011;2592;48.140;7.614;2022-09-30T10:04:50;18.07;;;14.30;;
5147;SDS011;2592;48.140;7.614;2022-09-30T10:07:25;14.20;;;12.80;;
5147;SDS011;2592;48.140;7.614;2022-09-30T10:10:04;16.77;;;14.23;;
5147;SDS011;2592;48.140;7.614;2022-09-30T10:12:31;15.20;;;12.90;;
5147;SDS011;2592;48.140;7.614;2022-09-30T10:14:59;15.53;;;12.83;;
5147;SDS011;2592;48.140;7.614;2022-09-30T10:17:26;15.47;;;12.80;;
5147;SDS011;2592;48.140;7.614;2022-09-30T10:19:54;14.67;;;13.17;;
5147;SDS011;2592;48.140;7.614;2022-09-30T10:22:26;13.87;;;12.47;;
5147;SDS011;2592;48.140;7.614;2022-09-30T10:24:59;13.30;;;12.00;;
5147;SDS011;2592;48.140;7.614;2022-09-30T10:27:33;15.40;;;13.30;;
5147;SDS011;2592;48.140;7.614;2022-09-30T10:30:00;16.23;;;14.40;;
5147;SDS011;2592;48.140;7.614;2022-09-30T10:32:26;23.90;;;15.63;;
5147;SDS011;2592;48.140;7.614;2022-09-30T10:34:53;17.47;;;14.93;;
5147;SDS011;2592;48.140;7.614;2022-09-30T10:37:21;17.63;;;14.80;;
5147;SDS011;2592;48.140;7.614;2022-09-30T10:39:51;15.63;;;13.93;;
5147;SDS011;2592;48.140;7.614;2022-09-30T10:42:21;16.93;;;13.80;;
5147;SDS011;2592;48.140;7.614;2022-09-30T10:44:51;18.63;;;12.93;;
5147;SDS011;2592;48.140;7.614;2022-09-30T10:47:18;14.23;;;12.07;;
5147;SDS011;2592;48.140;7.614;2022-09-30T10:49:46;14.90;;;11.97;;
5147;SDS011;2592;48.140;7.614;2022-09-30T10:52:15;14.90;;;12.33;;
5147;SDS011;2592;48.140;7.614;2022-09-30T10:54:47;14.77;;;12.60;;
5147;SDS011;2592;48.140;7.614;2022-09-30T10:57:15;17.00;;;13.50;;
5147;SDS011;2592;48.140;7.614;2022-09-30T10:59:44;14.67;;;12.40;;
5147;SDS011;2592;48.140;7.614;2022-09-30T11:02:15;13.30;;;11.90;;
5147;SDS011;2592;48.140;7.614;2022-09-30T11:04:45;13.00;;;11.60;;
5147;SDS011;2592;48.140;7.614;2022-09-30T11:07:14;15.53;;;12.03;;
5147;SDS011;2592;48.140;7.614;2022-09-30T11:09:45;16.03;;;12.10;;
5147;SDS011;2592;48.140;7.614;2022-09-30T11:12:18;16.50;;;12.60;;
5147;SDS011;2592;48.140;7.614;2022-09-30T11:14:46;14.77;;;12.00;;
5147;SDS011;2592;48.140;7.614;2022-09-30T11:17:17;13.70;;;11.40;;
5147;SDS011;2592;48.140;7.614;2022-09-30T11:19:45;14.47;;;12.93;;
5147;SDS011;2592;48.140;7.614;2022-09-30T11:22:19;15.67;;;11.50;;
5147;SDS011;2592;48.140;7.614;2022-09-30T11:24:49;14.77;;;11.33;;
5147;SDS011;2592;48.140;7.614;2022-09-30T11:27:19;13.53;;;11.27;;
5147;SDS011;2592;48.140;7.614;2022-09-30T11:29:51;13.93;;;11.77;;
5147;SDS011;2592;48.140;7.614;2022-09-30T11:32:25;13.00;;;10.97;;
5147;SDS011;2592;48.140;7.614;2022-09-30T11:34:58;16.37;;;12.70;;
5147;SDS011;2592;48.140;7.614;2022-09-30T11:37:30;14.20;;;11.77;;
5147;SDS011;2592;48.140;7.614;2022-09-30T11:40:01;12.80;;;10.37;;
5147;SDS011;2592;48.140;7.614;2022-09-30T11:42:32;13.10;;;10.30;;
5147;SDS011;2592;48.140;7.614;2022-09-30T11:45:04;12.80;;;10.03;;
5147;SDS011;2592;48.140;7.614;2022-09-30T11:47:40;14.80;;;11.30;;
5147;SDS011;2592;48.140;7.614;2022-09-30T11:50:19;13.70;;;10.80;;
5147;SDS011;2592;48.140;7.614;2022-09-30T11:52:50;12.47;;;10.40;;
5147;SDS011;2592;48.140;7.614;2022-09-30T11:55:27;13.40;;;10.03;;
5147;SDS011;2592;48.140;7.614;2022-09-30T11:57:59;11.73;;;9.83;;
5147;SDS011;2592;48.140;7.614;2022-09-30T12:00:28;21.53;;;17.23;;
5147;SDS011;2592;48.140;7.614;2022-09-30T12:02:57;12.30;;;11.03;;
5147;SDS011;2592;48.140;7.614;2022-09-30T12:05:26;18.40;;;10.40;;
5147;SDS011;2592;48.140;7.614;2022-09-30T12:07:54;12.83;;;9.47;;
5147;SDS011;2592;48.140;7.614;2022-09-30T12:10:25;14.90;;;9.67;;
5147;SDS011;2592;48.140;7.614;2022-09-30T12:12:53;12.07;;;9.80;;
5147;SDS011;2592;48.140;7.614;2022-09-30T12:15:22;10.57;;;9.27;;
5147;SDS011;2592;48.140;7.614;2022-09-30T12:17:52;12.90;;;9.67;;
5147;SDS011;2592;48.140;7.614;2022-09-30T12:20:22;10.33;;;9.13;;
5147;SDS011;2592;48.140;7.614;2022-09-30T12:22:50;9.93;;;8.40;;
5147;SDS011;2592;48.140;7.614;2022-09-30T12:25:18;12.17;;;8.70;;
5147;SDS011;2592;48.140;7.614;2022-09-30T12:27:47;12.07;;;9.40;;
5147;SDS011;2592;48.140;7.614;2022-09-30T12:30:16;13.50;;;8.40;;
5147;SDS011;2592;48.140;7.614;2022-09-30T12:35:50;9.63;;;8.43;;
5147;SDS011;2592;48.140;7.614;2022-09-30T12:38:29;8.87;;;7.67;;
5147;SDS011;2592;48.140;7.614;2022-09-30T12:41:00;9.40;;;7.93;;
5147;SDS011;2592;48.140;7.614;2022-09-30T12:43:41;10.80;;;8.53;;
5147;SDS011;2592;48.140;7.614;2022-09-30T12:46:13;8.23;;;7.10;;
5147;SDS011;2592;48.140;7.614;2022-09-30T12:48:40;7.07;;;6.37;;
5147;SDS011;2592;48.140;7.614;2022-09-30T12:51:09;6.37;;;5.77;;
5147;SDS011;2592;48.140;7.614;2022-09-30T12:53:43;7.03;;;5.67;;
5147;SDS011;2592;48.140;7.614;2022-09-30T12:56:15;7.80;;;6.47;;
5147;SDS011;2592;48.140;7.614;2022-09-30T12:58:42;6.00;;;5.00;;
5147;SDS011;2592;48.140;7.614;2022-09-30T13:01:11;9.20;;;6.60;;
5147;SDS011;2592;48.140;7.614;2022-09-30T13:03:42;10.80;;;7.40;;
5147;SDS011;2592;48.140;7.614;2022-09-30T13:06:10;9.07;;;6.33;;
5147;SDS011;2592;48.140;7.614;2022-09-30T13:08:43;9.00;;;6.20;;
5147;SDS011;2592;48.140;7.614;2022-09-30T13:11:32;6.20;;;5.00;;
5147;SDS011;2592;48.140;7.614;2022-09-30T13:14:02;7.63;;;4.77;;
5147;SDS011;2592;48.140;7.614;2022-09-30T13:19:19;5.20;;;4.30;;
5147;SDS011;2592;48.140;7.614;2022-09-30T13:21:47;6.67;;;3.70;;
5147;SDS011;2592;48.140;7.614;2022-09-30T13:24:14;5.20;;;4.10;;
5147;SDS011;2592;48.140;7.614;2022-09-30T13:26:44;4.10;;;3.70;;
5147;SDS011;2592;48.140;7.614;2022-09-30T13:29:35;3.73;;;3.13;;
5147;SDS011;2592;48.140;7.614;2022-09-30T13:32:07;4.00;;;2.60;;
5147;SDS011;2592;48.140;7.614;2022-09-30T13:34:47;5.43;;;3.63;;
5147;SDS011;2592;48.140;7.614;2022-09-30T13:40:03;1.70;;;1.33;;
5147;SDS011;2592;48.140;7.614;2022-09-30T13:42:32;10.20;;;8.73;;
5147;SDS011;2592;48.140;7.614;2022-09-30T13:45:03;2.97;;;2.57;;
5147;SDS011;2592;48.140;7.614;2022-09-30T13:47:32;1.93;;;1.50;;
5147;SDS011;2592;48.140;7.614;2022-09-30T13:50:02;3.50;;;1.73;;
5147;SDS011;2592;48.140;7.614;2022-09-30T13:52:31;1.67;;;1.30;;
5147;SDS011;2592;48.140;7.614;2022-09-30T13:55:01;1.77;;;1.47;;
5147;SDS011;2592;48.140;7.614;2022-09-30T13:57:34;3.00;;;1.83;;
5147;SDS011;2592;48.140;7.614;2022-09-30T14:00:04;2.00;;;1.40;;
5147;SDS011;2592;48.140;7.614;2022-09-30T14:05:26;11.67;;;8.10;;
5147;SDS011;2592;48.140;7.614;2022-09-30T14:08:03;7.80;;;4.60;;
5147;SDS011;2592;48.140;7.614;2022-09-30T14:10:35;2.90;;;2.13;;
5147;SDS011;2592;48.140;7.614;2022-09-30T14:13:20;2.50;;;1.60;;
5147;SDS011;2592;48.140;7.614;2022-09-30T14:16:05;1.83;;;1.30;;
5147;SDS011;2592;48.140;7.614;2022-09-30T14:18:43;2.20;;;1.83;;
5147;SDS011;2592;48.140;7.614;2022-09-30T14:21:23;3.40;;;2.57;;
5147;SDS011;2592;48.140;7.614;2022-09-30T14:23:55;3.70;;;1.80;;
5147;SDS011;2592;48.140;7.614;2022-09-30T14:26:27;2.13;;;1.27;;
5147;SDS011;2592;48.140;7.614;2022-09-30T14:28:58;2.03;;;1.50;;
5147;SDS011;2592;48.140;7.614;2022-09-30T14:31:26;2.70;;;1.30;;
5147;SDS011;2592;48.140;7.614;2022-09-30T14:33:56;2.20;;;1.43;;
5147;SDS011;2592;48.140;7.614;2022-09-30T14:36:22;2.00;;;1.77;;
5147;SDS011;2592;48.140;7.614;2022-09-30T14:38:50;1.83;;;1.50;;
5147;SDS011;2592;48.140;7.614;2022-09-30T14:41:17;3.90;;;1.70;;
5147;SDS011;2592;48.140;7.614;2022-09-30T14:43:45;2.87;;;1.30;;
5147;SDS011;2592;48.140;7.614;2022-09-30T14:46:17;3.47;;;2.23;;
5147;SDS011;2592;48.140;7.614;2022-09-30T14:48:49;9.13;;;1.47;;
5147;SDS011;2592;48.140;7.614;2022-09-30T14:51:17;1.97;;;1.60;;
5147;SDS011;2592;48.140;7.614;2022-09-30T14:53:51;1.83;;;1.20;;
5147;SDS011;2592;48.140;7.614;2022-09-30T14:56:19;1.93;;;1.60;;
5147;SDS011;2592;48.140;7.614;2022-09-30T14:58:46;1.43;;;1.13;;
5147;SDS011;2592;48.140;7.614;2022-09-30T15:01:18;1.33;;;1.20;;
5147;SDS011;2592;48.140;7.614;2022-09-30T15:03:47;1.03;;;0.90;;
5147;SDS011;2592;48.140;7.614;2022-09-30T15:06:17;1.80;;;1.20;;
5147;SDS011;2592;48.140;7.614;2022-09-30T15:08:44;2.60;;;1.37;;
5147;SDS011;2592;48.140;7.614;2022-09-30T15:11:15;1.70;;;1.30;;
5147;SDS011;2592;48.140;7.614;2022-09-30T15:13:42;2.77;;;1.60;;
5147;SDS011;2592;48.140;7.614;2022-09-30T15:16:22;2.50;;;1.13;;
5147;SDS011;2592;48.140;7.614;2022-09-30T15:18:48;8.20;;;1.40;;
5147;SDS011;2592;48.140;7.614;2022-09-30T15:21:15;3.40;;;1.80;;
5147;SDS011;2592;48.140;7.614;2022-09-30T15:23:42;3.70;;;1.63;;
5147;SDS011;2592;48.140;7.614;2022-09-30T15:26:10;1.63;;;1.40;;
5147;SDS011;2592;48.140;7.614;2022-09-30T15:28:36;8.87;;;1.40;;
5147;SDS011;2592;48.140;7.614;2022-09-30T15:31:04;2.30;;;1.50;;
5147;SDS011;2592;48.140;7.614;2022-09-30T15:33:33;4.13;;;1.93;;